sensor_id;sensor_type;location;lat;lon;timestamp;P1;durP1;ratioP1;P2;durP2;ratioP2
22665;SDS011;11499;49.486;11.104;2022-12-07T00:00:08;6.17;;;5.57;;
22665;SDS011;11499;49.486;11.104;2022-12-07T00:05:16;5.93;;;5.43;;
22665;SDS011;11499;49.486;11.104;2022-12-07T00:07:42;6.03;;;5.43;;
22665;SDS011;11499;49.486;11.104;2022-12-07T00:10:07;6.10;;;5.50;;
22665;SDS011;11499;49.486;11.104;2022-12-07T00:12:33;5.53;;;5.03;;
22665;SDS011;11499;49.486;11.104;2022-12-07T00:14:58;5.47;;;5.00;;
22665;SDS011;11499;49.486;11.104;2022-12-07T00:17:24;7.60;;;5.47;;
22665;SDS011;11499;49.486;11.104;2022-12-07T00:19:49;5.77;;;5.23;;
22665;SDS011;11499;49.486;11.104;2022-12-07T00:22:15;6.07;;;5.47;;
22665;SDS011;11499;49.486;11.104;2022-12-07T00:24:41;6.00;;;5.40;;
22665;SDS011;11499;49.486;11.104;2022-12-07T00:27:06;6.20;;;5.50;;
22665;SDS011;11499;49.486;11.104;2022-12-07T00:32:32;5.73;;;5.20;;
22665;SDS011;11499;49.486;11.104;2022-12-07T00:34:58;5.70;;;5.20;;
22665;SDS011;11499;49.486;11.104;2022-12-07T00:37:23;6.33;;;5.73;;
22665;SDS011;11499;49.486;11.104;2022-12-07T00:39:48;7.30;;;5.57;;
22665;SDS011;11499;49.486;11.104;2022-12-07T00:42:14;6.50;;;5.90;;
22665;SDS011;11499;49.486;11.104;2022-12-07T00:44:39;6.93;;;6.33;;
22665;SDS011;11499;49.486;11.104;2022-12-07T00:47:05;6.80;;;6.20;;
22665;SDS011;11499;49.486;11.104;2022-12-07T00:49:30;6.83;;;6.13;;
22665;SDS011;11499;49.486;11.104;2022-12-07T00:51:56;6.83;;;6.20;;
22665;SDS011;11499;49.486;11.104;2022-12-07T00:54:21;6.17;;;5.57;;
22665;SDS011;11499;49.486;11.104;2022-12-07T00:59:47;6.90;;;6.20;;
22665;SDS011;11499;49.486;11.104;2022-12-07T01:02:13;7.07;;;6.23;;
22665;SDS011;11499;49.486;11.104;2022-12-07T01:04:39;7.67;;;6.67;;
22665;SDS011;11499;49.486;11.104;2022-12-07T01:07:04;8.00;;;7.17;;
22665;SDS011;11499;49.486;11.104;2022-12-07T01:09:30;6.23;;;5.63;;
22665;SDS011;11499;49.486;11.104;2022-12-07T01:11:55;6.47;;;5.87;;
22665;SDS011;11499;49.486;11.104;2022-12-07T01:14:21;7.00;;;6.13;;
22665;SDS011;11499;49.486;11.104;2022-12-07T01:16:46;6.30;;;5.70;;
22665;SDS011;11499;49.486;11.104;2022-12-07T01:19:12;7.33;;;6.63;;
22665;SDS011;11499;49.486;11.104;2022-12-07T01:21:37;7.23;;;6.57;;
22665;SDS011;11499;49.486;11.104;2022-12-07T01:26:55;7.67;;;6.87;;
22665;SDS011;11499;49.486;11.104;2022-12-07T01:29:21;7.43;;;6.73;;
22665;SDS011;11499;49.486;11.104;2022-12-07T01:31:48;7.80;;;7.00;;
22665;SDS011;11499;49.486;11.104;2022-12-07T01:34:14;8.20;;;7.40;;
22665;SDS011;11499;49.486;11.104;2022-12-07T01:36:39;7.83;;;6.80;;
22665;SDS011;11499;49.486;11.104;2022-12-07T01:39:06;6.97;;;6.27;;
22665;SDS011;11499;49.486;11.104;2022-12-07T01:41:35;7.63;;;6.90;;
22665;SDS011;11499;49.486;11.104;2022-12-07T01:49:28;9.30;;;7.47;;
22665;SDS011;11499;49.486;11.104;2022-12-07T01:54:48;8.23;;;7.40;;
22665;SDS011;11499;49.486;11.104;2022-12-07T01:57:18;9.50;;;6.60;;
22665;SDS011;11499;49.486;11.104;2022-12-07T01:59:44;7.13;;;6.43;;
22665;SDS011;11499;49.486;11.104;2022-12-07T02:02:15;7.47;;;6.77;;
22665;SDS011;11499;49.486;11.104;2022-12-07T02:04:44;7.67;;;6.97;;
22665;SDS011;11499;49.486;11.104;2022-12-07T02:07:10;8.17;;;7.37;;
22665;SDS011;11499;49.486;11.104;2022-12-07T02:09:37;8.67;;;7.87;;
22665;SDS011;11499;49.486;11.104;2022-12-07T02:12:03;8.03;;;7.23;;
22665;SDS011;11499;49.486;11.104;2022-12-07T02:14:29;8.37;;;7.57;;
22665;SDS011;11499;49.486;11.104;2022-12-07T02:17:03;8.10;;;7.30;;
22665;SDS011;11499;49.486;11.104;2022-12-07T02:22:51;8.50;;;7.50;;
22665;SDS011;11499;49.486;11.104;2022-12-07T02:30:42;9.07;;;7.87;;
22665;SDS011;11499;49.486;11.104;2022-12-07T02:34:14;8.10;;;7.30;;
22665;SDS011;11499;49.486;11.104;2022-12-07T02:36:21;8.40;;;7.50;;
22665;SDS011;11499;49.486;11.104;2022-12-07T02:38:49;8.93;;;7.53;;
22665;SDS011;11499;49.486;11.104;2022-12-07T02:41:28;8.57;;;7.67;;
22665;SDS011;11499;49.486;11.104;2022-12-07T02:44:02;8.33;;;7.33;;
22665;SDS011;11499;49.486;11.104;2022-12-07T02:46:34;8.27;;;7.40;;
22665;SDS011;11499;49.486;11.104;2022-12-07T02:49:03;8.10;;;7.27;;
22665;SDS011;11499;49.486;11.104;2022-12-07T02:54:39;8.47;;;7.67;;
22665;SDS011;11499;49.486;11.104;2022-12-07T02:57:08;8.07;;;7.27;;
22665;SDS011;11499;49.486;11.104;2022-12-07T03:02:38;8.43;;;7.63;;
22665;SDS011;11499;49.486;11.104;2022-12-07T03:10:57;9.43;;;8.43;;
22665;SDS011;11499;49.486;11.104;2022-12-07T03:21:19;9.67;;;8.67;;
22665;SDS011;11499;49.486;11.104;2022-12-07T03:23:57;9.43;;;8.50;;
22665;SDS011;11499;49.486;11.104;2022-12-07T03:26:29;9.13;;;8.17;;
22665;SDS011;11499;49.486;11.104;2022-12-07T03:28:59;8.83;;;7.93;;
22665;SDS011;11499;49.486;11.104;2022-12-07T03:31:31;10.23;;;9.17;;
22665;SDS011;11499;49.486;11.104;2022-12-07T03:34:09;9.13;;;7.63;;
22665;SDS011;11499;49.486;11.104;2022-12-07T03:41:56;8.77;;;7.87;;
22665;SDS011;11499;49.486;11.104;2022-12-07T03:44:23;9.10;;;8.20;;
22665;SDS011;11499;49.486;11.104;2022-12-07T03:49:36;8.80;;;7.90;;
22665;SDS011;11499;49.486;11.104;2022-12-07T03:52:31;8.13;;;7.37;;
22665;SDS011;11499;49.486;11.104;2022-12-07T03:57:48;8.73;;;7.83;;
22665;SDS011;11499;49.486;11.104;2022-12-07T04:00:16;9.83;;;8.07;;
22665;SDS011;11499;49.486;11.104;2022-12-07T04:02:43;9.83;;;8.60;;
22665;SDS011;11499;49.486;11.104;2022-12-07T04:05:08;9.83;;;8.53;;
22665;SDS011;11499;49.486;11.104;2022-12-07T04:07:35;9.90;;;8.40;;
22665;SDS011;11499;49.486;11.104;2022-12-07T04:10:00;10.03;;;9.00;;
22665;SDS011;11499;49.486;11.104;2022-12-07T04:12:26;9.83;;;8.83;;
22665;SDS011;11499;49.486;11.104;2022-12-07T04:14:51;11.73;;;9.37;;
22665;SDS011;11499;49.486;11.104;2022-12-07T04:17:17;11.80;;;9.80;;
22665;SDS011;11499;49.486;11.104;2022-12-07T04:22:23;10.37;;;9.17;;
22665;SDS011;11499;49.486;11.104;2022-12-07T04:24:49;10.13;;;9.00;;
22665;SDS011;11499;49.486;11.104;2022-12-07T04:27:14;9.47;;;8.47;;
22665;SDS011;11499;49.486;11.104;2022-12-07T04:29:40;11.00;;;9.30;;
22665;SDS011;11499;49.486;11.104;2022-12-07T04:32:05;10.00;;;8.67;;
22665;SDS011;11499;49.486;11.104;2022-12-07T04:34:31;11.60;;;9.43;;
22665;SDS011;11499;49.486;11.104;2022-12-07T04:36:56;11.37;;;9.10;;
22665;SDS011;11499;49.486;11.104;2022-12-07T04:39:26;11.47;;;9.47;;
22665;SDS011;11499;49.486;11.104;2022-12-07T04:41:53;12.37;;;9.97;;
22665;SDS011;11499;49.486;11.104;2022-12-07T04:44:19;13.33;;;10.20;;
22665;SDS011;11499;49.486;11.104;2022-12-07T04:49:24;11.77;;;9.90;;
22665;SDS011;11499;49.486;11.104;2022-12-07T04:51:50;11.20;;;9.70;;
22665;SDS011;11499;49.486;11.104;2022-12-07T04:54:15;11.53;;;9.50;;
22665;SDS011;11499;49.486;11.104;2022-12-07T04:56:42;10.80;;;9.20;;
22665;SDS011;11499;49.486;11.104;2022-12-07T04:59:09;10.50;;;8.97;;
22665;SDS011;11499;49.486;11.104;2022-12-07T05:01:35;10.53;;;9.33;;
22665;SDS011;11499;49.486;11.104;2022-12-07T05:04:01;13.00;;;9.20;;
22665;SDS011;11499;49.486;11.104;2022-12-07T05:06:27;9.63;;;8.63;;
22665;SDS011;11499;49.486;11.104;2022-12-07T05:08:52;9.77;;;8.77;;
22665;SDS011;11499;49.486;11.104;2022-12-07T05:11:18;10.63;;;9.00;;
22665;SDS011;11499;49.486;11.104;2022-12-07T05:16:31;10.07;;;9.00;;
22665;SDS011;11499;49.486;11.104;2022-12-07T05:18:57;9.93;;;8.47;;
22665;SDS011;11499;49.486;11.104;2022-12-07T05:21:22;9.53;;;8.53;;
22665;SDS011;11499;49.486;11.104;2022-12-07T05:23:48;9.20;;;8.20;;
22665;SDS011;11499;49.486;11.104;2022-12-07T05:26:13;10.90;;;9.47;;
22665;SDS011;11499;49.486;11.104;2022-12-07T05:28:39;9.17;;;8.10;;
22665;SDS011;11499;49.486;11.104;2022-12-07T05:31:04;10.07;;;8.53;;
22665;SDS011;11499;49.486;11.104;2022-12-07T05:33:30;9.73;;;8.73;;
22665;SDS011;11499;49.486;11.104;2022-12-07T05:35:55;10.10;;;9.00;;
22665;SDS011;11499;49.486;11.104;2022-12-07T05:38:21;9.83;;;8.83;;
22665;SDS011;11499;49.486;11.104;2022-12-07T05:43:48;11.00;;;9.53;;
22665;SDS011;11499;49.486;11.104;2022-12-07T05:46:14;10.60;;;9.03;;
22665;SDS011;11499;49.486;11.104;2022-12-07T05:48:39;10.20;;;9.20;;
22665;SDS011;11499;49.486;11.104;2022-12-07T05:51:04;11.77;;;9.07;;
22665;SDS011;11499;49.486;11.104;2022-12-07T05:53:30;11.23;;;9.63;;
22665;SDS011;11499;49.486;11.104;2022-12-07T05:55:55;10.17;;;9.00;;
22665;SDS011;11499;49.486;11.104;2022-12-07T05:58:21;10.17;;;9.07;;
22665;SDS011;11499;49.486;11.104;2022-12-07T06:01:05;10.80;;;9.30;;
22665;SDS011;11499;49.486;11.104;2022-12-07T06:03:30;12.10;;;9.70;;
22665;SDS011;11499;49.486;11.104;2022-12-07T06:05:56;10.73;;;9.63;;
22665;SDS011;11499;49.486;11.104;2022-12-07T06:11:00;10.70;;;9.33;;
22665;SDS011;11499;49.486;11.104;2022-12-07T06:13:44;10.47;;;9.37;;
22665;SDS011;11499;49.486;11.104;2022-12-07T06:16:10;12.80;;;9.60;;
22665;SDS011;11499;49.486;11.104;2022-12-07T06:18:35;11.43;;;9.87;;
22665;SDS011;11499;49.486;11.104;2022-12-07T06:21:01;12.07;;;10.73;;
22665;SDS011;11499;49.486;11.104;2022-12-07T06:23:26;11.47;;;10.20;;
22665;SDS011;11499;49.486;11.104;2022-12-07T06:25:52;19.57;;;14.80;;
22665;SDS011;11499;49.486;11.104;2022-12-07T06:28:17;14.27;;;11.77;;
22665;SDS011;11499;49.486;11.104;2022-12-07T06:30:43;12.47;;;10.10;;
22665;SDS011;11499;49.486;11.104;2022-12-07T06:36:07;12.53;;;9.97;;
22665;SDS011;11499;49.486;11.104;2022-12-07T06:38:33;12.07;;;10.00;;
22665;SDS011;11499;49.486;11.104;2022-12-07T06:40:59;12.50;;;9.97;;
22665;SDS011;11499;49.486;11.104;2022-12-07T06:43:24;13.57;;;9.97;;
22665;SDS011;11499;49.486;11.104;2022-12-07T06:45:50;14.10;;;10.00;;
22665;SDS011;11499;49.486;11.104;2022-12-07T06:48:15;11.77;;;9.83;;
22665;SDS011;11499;49.486;11.104;2022-12-07T06:50:43;12.93;;;10.77;;
22665;SDS011;11499;49.486;11.104;2022-12-07T06:53:13;12.27;;;10.57;;
22665;SDS011;11499;49.486;11.104;2022-12-07T06:55:38;11.73;;;10.13;;
22665;SDS011;11499;49.486;11.104;2022-12-07T06:58:04;10.97;;;9.87;;
22665;SDS011;11499;49.486;11.104;2022-12-07T07:03:06;12.33;;;9.77;;
22665;SDS011;11499;49.486;11.104;2022-12-07T07:05:31;13.57;;;10.87;;
22665;SDS011;11499;49.486;11.104;2022-12-07T07:07:57;11.43;;;9.70;;
22665;SDS011;11499;49.486;11.104;2022-12-07T07:10:23;11.17;;;9.97;;
22665;SDS011;11499;49.486;11.104;2022-12-07T07:12:48;12.77;;;10.87;;
22665;SDS011;11499;49.486;11.104;2022-12-07T07:15:14;12.00;;;10.57;;
22665;SDS011;11499;49.486;11.104;2022-12-07T07:17:39;11.70;;;10.20;;
22665;SDS011;11499;49.486;11.104;2022-12-07T07:20:05;11.50;;;9.80;;
22665;SDS011;11499;49.486;11.104;2022-12-07T07:22:31;11.37;;;10.17;;
22665;SDS011;11499;49.486;11.104;2022-12-07T07:24:56;12.60;;;10.33;;
22665;SDS011;11499;49.486;11.104;2022-12-07T07:29:59;12.30;;;10.70;;
22665;SDS011;11499;49.486;11.104;2022-12-07T07:32:25;11.97;;;9.90;;
22665;SDS011;11499;49.486;11.104;2022-12-07T07:34:50;12.10;;;9.77;;
22665;SDS011;11499;49.486;11.104;2022-12-07T07:37:16;11.87;;;9.53;;
22665;SDS011;11499;49.486;11.104;2022-12-07T07:39:41;14.87;;;9.90;;
22665;SDS011;11499;49.486;11.104;2022-12-07T07:42:07;12.23;;;10.53;;
22665;SDS011;11499;49.486;11.104;2022-12-07T07:44:33;12.80;;;10.53;;
22665;SDS011;11499;49.486;11.104;2022-12-07T07:47:00;11.70;;;9.70;;
22665;SDS011;11499;49.486;11.104;2022-12-07T07:49:25;10.20;;;9.03;;
22665;SDS011;11499;49.486;11.104;2022-12-07T07:51:51;10.13;;;9.13;;
22665;SDS011;11499;49.486;11.104;2022-12-07T07:57:26;10.90;;;9.53;;
22665;SDS011;11499;49.486;11.104;2022-12-07T07:59:52;12.67;;;10.10;;
22665;SDS011;11499;49.486;11.104;2022-12-07T08:02:18;13.67;;;9.97;;
22665;SDS011;11499;49.486;11.104;2022-12-07T08:04:45;10.80;;;9.60;;
22665;SDS011;11499;49.486;11.104;2022-12-07T08:07:11;12.87;;;9.93;;
22665;SDS011;11499;49.486;11.104;2022-12-07T08:09:37;13.83;;;9.87;;
22665;SDS011;11499;49.486;11.104;2022-12-07T08:12:03;11.90;;;10.63;;
22665;SDS011;11499;49.486;11.104;2022-12-07T08:14:29;12.50;;;10.30;;
22665;SDS011;11499;49.486;11.104;2022-12-07T08:16:55;12.80;;;9.97;;
22665;SDS011;11499;49.486;11.104;2022-12-07T08:19:21;12.03;;;10.20;;
22665;SDS011;11499;49.486;11.104;2022-12-07T08:24:26;11.53;;;9.60;;
22665;SDS011;11499;49.486;11.104;2022-12-07T08:26:51;11.73;;;10.53;;
22665;SDS011;11499;49.486;11.104;2022-12-07T08:29:17;11.27;;;9.77;;
22665;SDS011;11499;49.486;11.104;2022-12-07T08:31:43;13.30;;;10.20;;
22665;SDS011;11499;49.486;11.104;2022-12-07T08:34:09;12.57;;;10.00;;
22665;SDS011;11499;49.486;11.104;2022-12-07T08:36:36;11.33;;;9.97;;
22665;SDS011;11499;49.486;11.104;2022-12-07T08:39:02;12.17;;;10.60;;
22665;SDS011;11499;49.486;11.104;2022-12-07T08:41:27;11.93;;;10.33;;
22665;SDS011;11499;49.486;11.104;2022-12-07T08:43:53;12.27;;;10.23;;
22665;SDS011;11499;49.486;11.104;2022-12-07T08:46:19;12.10;;;10.37;;
22665;SDS011;11499;49.486;11.104;2022-12-07T08:48:54;11.27;;;9.17;;
22665;SDS011;11499;49.486;11.104;2022-12-07T08:51:23;10.77;;;9.43;;
22665;SDS011;11499;49.486;11.104;2022-12-07T08:56:26;10.77;;;8.90;;
22665;SDS011;11499;49.486;11.104;2022-12-07T08:58:52;11.60;;;9.50;;
22665;SDS011;11499;49.486;11.104;2022-12-07T09:01:18;9.77;;;8.20;;
22665;SDS011;11499;49.486;11.104;2022-12-07T09:03:44;11.37;;;8.83;;
22665;SDS011;11499;49.486;11.104;2022-12-07T09:06:09;9.90;;;7.90;;
22665;SDS011;11499;49.486;11.104;2022-12-07T09:08:36;10.43;;;8.47;;
22665;SDS011;11499;49.486;11.104;2022-12-07T09:11:06;10.73;;;9.00;;
22665;SDS011;11499;49.486;11.104;2022-12-07T09:13:31;10.13;;;8.83;;
22665;SDS011;11499;49.486;11.104;2022-12-07T09:15:57;10.00;;;7.87;;
22665;SDS011;11499;49.486;11.104;2022-12-07T09:18:22;10.13;;;8.87;;
22665;SDS011;11499;49.486;11.104;2022-12-07T09:23:38;11.60;;;8.90;;
22665;SDS011;11499;49.486;11.104;2022-12-07T09:26:04;10.40;;;8.23;;
22665;SDS011;11499;49.486;11.104;2022-12-07T09:28:30;9.87;;;7.77;;
22665;SDS011;11499;49.486;11.104;2022-12-07T09:30:55;11.87;;;8.63;;
22665;SDS011;11499;49.486;11.104;2022-12-07T09:33:21;9.87;;;7.67;;
22665;SDS011;11499;49.486;11.104;2022-12-07T09:35:47;9.73;;;7.97;;
22665;SDS011;11499;49.486;11.104;2022-12-07T09:38:14;9.47;;;8.00;;
22665;SDS011;11499;49.486;11.104;2022-12-07T09:40:40;10.07;;;8.27;;
22665;SDS011;11499;49.486;11.104;2022-12-07T09:43:12;9.67;;;7.57;;
22665;SDS011;11499;49.486;11.104;2022-12-07T09:45:45;9.77;;;7.17;;
22665;SDS011;11499;49.486;11.104;2022-12-07T09:50:23;9.17;;;7.43;;
22665;SDS011;11499;49.486;11.104;2022-12-07T09:52:51;9.70;;;7.60;;
22665;SDS011;11499;49.486;11.104;2022-12-07T09:55:27;8.47;;;7.33;;
22665;SDS011;11499;49.486;11.104;2022-12-07T09:57:54;9.87;;;7.83;;
22665;SDS011;11499;49.486;11.104;2022-12-07T10:00:21;8.77;;;7.77;;
22665;SDS011;11499;49.486;11.104;2022-12-07T10:05:26;9.60;;;7.77;;
22665;SDS011;11499;49.486;11.104;2022-12-07T10:07:59;10.27;;;8.77;;
22665;SDS011;11499;49.486;11.104;2022-12-07T10:10:27;8.23;;;7.43;;
22665;SDS011;11499;49.486;11.104;2022-12-07T10:13:06;9.97;;;8.50;;
22665;SDS011;11499;49.486;11.104;2022-12-07T10:17:29;8.07;;;7.10;;
22665;SDS011;11499;49.486;11.104;2022-12-07T10:22:37;8.93;;;8.03;;
22665;SDS011;11499;49.486;11.104;2022-12-07T10:25:16;9.10;;;8.17;;
22665;SDS011;11499;49.486;11.104;2022-12-07T10:27:44;9.70;;;7.83;;
22665;SDS011;11499;49.486;11.104;2022-12-07T10:30:23;9.97;;;7.40;;
22665;SDS011;11499;49.486;11.104;2022-12-07T10:32:49;9.03;;;7.37;;
22665;SDS011;11499;49.486;11.104;2022-12-07T10:35:19;9.10;;;7.60;;
22665;SDS011;11499;49.486;11.104;2022-12-07T10:37:49;8.53;;;7.10;;
22665;SDS011;11499;49.486;11.104;2022-12-07T10:43:03;8.60;;;7.70;;
22665;SDS011;11499;49.486;11.104;2022-12-07T10:45:29;8.43;;;7.40;;
22665;SDS011;11499;49.486;11.104;2022-12-07T10:53:38;8.70;;;7.10;;
22665;SDS011;11499;49.486;11.104;2022-12-07T10:56:26;8.97;;;7.50;;
22665;SDS011;11499;49.486;11.104;2022-12-07T10:59:17;7.87;;;7.07;;
22665;SDS011;11499;49.486;11.104;2022-12-07T11:01:57;8.87;;;7.97;;
22665;SDS011;11499;49.486;11.104;2022-12-07T11:12:18;8.70;;;7.80;;
22665;SDS011;11499;49.486;11.104;2022-12-07T11:15:18;8.13;;;7.33;;
22665;SDS011;11499;49.486;11.104;2022-12-07T11:18:24;8.67;;;7.43;;
22665;SDS011;11499;49.486;11.104;2022-12-07T11:21:16;10.43;;;7.77;;
22665;SDS011;11499;49.486;11.104;2022-12-07T11:24:14;8.80;;;7.57;;
22665;SDS011;11499;49.486;11.104;2022-12-07T11:26:48;9.13;;;7.87;;
22665;SDS011;11499;49.486;11.104;2022-12-07T11:35:35;10.03;;;8.27;;
22665;SDS011;11499;49.486;11.104;2022-12-07T11:38:10;9.67;;;8.20;;
22665;SDS011;11499;49.486;11.104;2022-12-07T11:40:39;9.07;;;8.10;;
22665;SDS011;11499;49.486;11.104;2022-12-07T11:45:44;10.83;;;7.97;;
22665;SDS011;11499;49.486;11.104;2022-12-07T11:48:19;9.83;;;8.20;;
22665;SDS011;11499;49.486;11.104;2022-12-07T11:50:50;8.63;;;7.73;;
22665;SDS011;11499;49.486;11.104;2022-12-07T11:53:24;8.60;;;7.80;;
22665;SDS011;11499;49.486;11.104;2022-12-07T12:07:24;9.53;;;8.07;;
22665;SDS011;11499;49.486;11.104;2022-12-07T12:09:56;9.20;;;8.20;;
22665;SDS011;11499;49.486;11.104;2022-12-07T12:12:39;9.27;;;8.27;;
22665;SDS011;11499;49.486;11.104;2022-12-07T12:20:30;8.50;;;7.60;;
22665;SDS011;11499;49.486;11.104;2022-12-07T12:23:15;10.33;;;7.87;;
22665;SDS011;11499;49.486;11.104;2022-12-07T12:25:46;8.87;;;7.63;;
22665;SDS011;11499;49.486;11.104;2022-12-07T12:36:56;9.20;;;7.43;;
22665;SDS011;11499;49.486;11.104;2022-12-07T12:39:21;9.40;;;7.53;;
22665;SDS011;11499;49.486;11.104;2022-12-07T12:46:57;7.97;;;7.17;;
22665;SDS011;11499;49.486;11.104;2022-12-07T12:51:53;8.00;;;7.20;;
22665;SDS011;11499;49.486;11.104;2022-12-07T12:54:20;8.30;;;7.47;;
22665;SDS011;11499;49.486;11.104;2022-12-07T12:58:39;8.90;;;8.00;;
22665;SDS011;11499;49.486;11.104;2022-12-07T13:03:56;8.20;;;7.40;;
22665;SDS011;11499;49.486;11.104;2022-12-07T13:08:52;8.30;;;7.37;;
22665;SDS011;11499;49.486;11.104;2022-12-07T13:11:28;11.03;;;7.57;;
22665;SDS011;11499;49.486;11.104;2022-12-07T13:17:12;9.73;;;7.17;;
22665;SDS011;11499;49.486;11.104;2022-12-07T13:20:06;7.70;;;6.90;;
22665;SDS011;11499;49.486;11.104;2022-12-07T13:25:28;11.37;;;7.97;;
22665;SDS011;11499;49.486;11.104;2022-12-07T13:28:03;9.10;;;7.60;;
22665;SDS011;11499;49.486;11.104;2022-12-07T13:30:44;7.40;;;6.63;;
22665;SDS011;11499;49.486;11.104;2022-12-07T13:33:15;9.40;;;7.80;;
22665;SDS011;11499;49.486;11.104;2022-12-07T13:35:43;8.63;;;7.43;;
22665;SDS011;11499;49.486;11.104;2022-12-07T13:38:22;8.07;;;7.27;;
22665;SDS011;11499;49.486;11.104;2022-12-07T13:44:00;8.17;;;7.37;;
22665;SDS011;11499;49.486;11.104;2022-12-07T13:51:49;9.57;;;7.87;;
22665;SDS011;11499;49.486;11.104;2022-12-07T13:54:15;9.60;;;7.37;;
22665;SDS011;11499;49.486;11.104;2022-12-07T13:56:41;8.17;;;7.03;;
22665;SDS011;11499;49.486;11.104;2022-12-07T13:59:17;8.07;;;7.27;;
22665;SDS011;11499;49.486;11.104;2022-12-07T14:01:46;10.57;;;8.20;;
22665;SDS011;11499;49.486;11.104;2022-12-07T14:04:46;10.67;;;8.00;;
22665;SDS011;11499;49.486;11.104;2022-12-07T14:12:21;8.03;;;7.23;;
22665;SDS011;11499;49.486;11.104;2022-12-07T14:14:48;9.27;;;7.93;;
22665;SDS011;11499;49.486;11.104;2022-12-07T14:19:58;9.40;;;8.13;;
22665;SDS011;11499;49.486;11.104;2022-12-07T14:22:32;7.80;;;7.00;;
22665;SDS011;11499;49.486;11.104;2022-12-07T14:25:16;8.13;;;7.27;;
22665;SDS011;11499;49.486;11.104;2022-12-07T14:27:54;9.70;;;7.27;;
22665;SDS011;11499;49.486;11.104;2022-12-07T14:30:23;8.77;;;6.70;;
22665;SDS011;11499;49.486;11.104;2022-12-07T14:32:57;8.50;;;7.53;;
22665;SDS011;11499;49.486;11.104;2022-12-07T14:35:25;7.93;;;5.70;;
22665;SDS011;11499;49.486;11.104;2022-12-07T14:37:51;6.63;;;5.87;;
22665;SDS011;11499;49.486;11.104;2022-12-07T14:40:21;6.23;;;5.50;;
22665;SDS011;11499;49.486;11.104;2022-12-07T14:42:50;5.37;;;3.70;;
22665;SDS011;11499;49.486;11.104;2022-12-07T14:46:21;4.40;;;3.50;;
22665;SDS011;11499;49.486;11.104;2022-12-07T14:48:47;4.33;;;3.73;;
22665;SDS011;11499;49.486;11.104;2022-12-07T14:51:13;5.97;;;4.03;;
22665;SDS011;11499;49.486;11.104;2022-12-07T14:53:46;4.60;;;4.20;;
22665;SDS011;11499;49.486;11.104;2022-12-07T14:56:15;4.40;;;3.83;;
22665;SDS011;11499;49.486;11.104;2022-12-07T14:58:40;3.50;;;2.87;;
22665;SDS011;11499;49.486;11.104;2022-12-07T15:01:06;3.87;;;3.30;;
22665;SDS011;11499;49.486;11.104;2022-12-07T15:03:31;4.40;;;3.37;;
22665;SDS011;11499;49.486;11.104;2022-12-07T15:05:59;4.97;;;3.63;;
22665;SDS011;11499;49.486;11.104;2022-12-07T15:08:25;5.57;;;4.43;;
22665;SDS011;11499;49.486;11.104;2022-12-07T15:12:29;6.10;;;4.47;;
22665;SDS011;11499;49.486;11.104;2022-12-07T15:14:54;7.27;;;5.03;;
22665;SDS011;11499;49.486;11.104;2022-12-07T15:17:20;5.60;;;5.00;;
22665;SDS011;11499;49.486;11.104;2022-12-07T15:19:45;6.97;;;5.63;;
22665;SDS011;11499;49.486;11.104;2022-12-07T15:22:11;8.37;;;5.60;;
22665;SDS011;11499;49.486;11.104;2022-12-07T15:24:37;6.43;;;5.73;;
22665;SDS011;11499;49.486;11.104;2022-12-07T15:27:03;9.17;;;5.40;;
22665;SDS011;11499;49.486;11.104;2022-12-07T15:29:29;6.20;;;5.57;;
22665;SDS011;11499;49.486;11.104;2022-12-07T15:31:54;7.67;;;6.17;;
22665;SDS011;11499;49.486;11.104;2022-12-07T15:37:20;6.37;;;5.73;;
22665;SDS011;11499;49.486;11.104;2022-12-07T15:39:46;7.80;;;6.17;;
22665;SDS011;11499;49.486;11.104;2022-12-07T15:42:11;7.07;;;5.87;;
22665;SDS011;11499;49.486;11.104;2022-12-07T15:44:37;7.43;;;6.13;;
22665;SDS011;11499;49.486;11.104;2022-12-07T15:47:21;7.70;;;6.30;;
22665;SDS011;11499;49.486;11.104;2022-12-07T15:49:47;8.13;;;6.53;;
22665;SDS011;11499;49.486;11.104;2022-12-07T15:52:12;8.67;;;7.27;;
22665;SDS011;11499;49.486;11.104;2022-12-07T15:54:38;11.23;;;8.30;;
22665;SDS011;11499;49.486;11.104;2022-12-07T15:57:04;11.47;;;8.60;;
22665;SDS011;11499;49.486;11.104;2022-12-07T15:59:30;11.77;;;9.30;;
22665;SDS011;11499;49.486;11.104;2022-12-07T16:03:05;10.60;;;9.10;;
22665;SDS011;11499;49.486;11.104;2022-12-07T16:05:31;9.70;;;8.63;;
22665;SDS011;11499;49.486;11.104;2022-12-07T16:07:56;10.17;;;9.10;;
22665;SDS011;11499;49.486;11.104;2022-12-07T16:10:22;9.63;;;8.63;;
22665;SDS011;11499;49.486;11.104;2022-12-07T16:12:47;11.17;;;8.93;;
22665;SDS011;11499;49.486;11.104;2022-12-07T16:15:13;11.43;;;9.67;;
22665;SDS011;11499;49.486;11.104;2022-12-07T16:17:38;12.33;;;9.90;;
22665;SDS011;11499;49.486;11.104;2022-12-07T16:20:04;15.83;;;9.97;;
22665;SDS011;11499;49.486;11.104;2022-12-07T16:22:30;13.40;;;10.00;;
22665;SDS011;11499;49.486;11.104;2022-12-07T16:24:56;12.27;;;10.97;;
22665;SDS011;11499;49.486;11.104;2022-12-07T16:30:33;12.60;;;10.67;;
22665;SDS011;11499;49.486;11.104;2022-12-07T16:32:59;12.93;;;9.70;;
22665;SDS011;11499;49.486;11.104;2022-12-07T16:35:24;10.93;;;9.70;;
22665;SDS011;11499;49.486;11.104;2022-12-07T16:37:50;12.20;;;9.97;;
22665;SDS011;11499;49.486;11.104;2022-12-07T16:40:15;13.00;;;10.40;;
22665;SDS011;11499;49.486;11.104;2022-12-07T16:42:41;11.40;;;9.63;;
22665;SDS011;11499;49.486;11.104;2022-12-07T16:45:06;10.67;;;8.70;;
22665;SDS011;11499;49.486;11.104;2022-12-07T16:47:32;11.20;;;9.47;;
22665;SDS011;11499;49.486;11.104;2022-12-07T16:49:58;10.43;;;9.23;;
22665;SDS011;11499;49.486;11.104;2022-12-07T16:52:23;10.63;;;9.47;;
22665;SDS011;11499;49.486;11.104;2022-12-07T16:57:49;10.57;;;9.17;;
22665;SDS011;11499;49.486;11.104;2022-12-07T17:00:14;10.43;;;9.00;;
22665;SDS011;11499;49.486;11.104;2022-12-07T17:02:40;11.33;;;9.77;;
22665;SDS011;11499;49.486;11.104;2022-12-07T17:05:06;13.03;;;9.80;;
22665;SDS011;11499;49.486;11.104;2022-12-07T17:07:33;12.13;;;9.77;;
22665;SDS011;11499;49.486;11.104;2022-12-07T17:09:58;11.60;;;10.30;;
22665;SDS011;11499;49.486;11.104;2022-12-07T17:12:24;13.67;;;10.67;;
22665;SDS011;11499;49.486;11.104;2022-12-07T17:14:50;13.37;;;10.50;;
22665;SDS011;11499;49.486;11.104;2022-12-07T17:17:36;12.67;;;11.30;;
22665;SDS011;11499;49.486;11.104;2022-12-07T17:20:02;12.47;;;10.70;;
22665;SDS011;11499;49.486;11.104;2022-12-07T17:24:47;14.37;;;11.20;;
22665;SDS011;11499;49.486;11.104;2022-12-07T17:27:12;11.47;;;10.27;;
22665;SDS011;11499;49.486;11.104;2022-12-07T17:29:38;12.03;;;10.37;;
22665;SDS011;11499;49.486;11.104;2022-12-07T17:32:03;11.23;;;9.60;;
22665;SDS011;11499;49.486;11.104;2022-12-07T17:34:29;11.03;;;9.77;;
22665;SDS011;11499;49.486;11.104;2022-12-07T17:36:55;12.13;;;10.30;;
22665;SDS011;11499;49.486;11.104;2022-12-07T17:39:20;11.83;;;10.20;;
22665;SDS011;11499;49.486;11.104;2022-12-07T17:41:46;12.43;;;10.07;;
22665;SDS011;11499;49.486;11.104;2022-12-07T17:44:30;11.27;;;10.10;;
22665;SDS011;11499;49.486;11.104;2022-12-07T17:46:56;10.87;;;9.37;;
22665;SDS011;11499;49.486;11.104;2022-12-07T17:51:14;11.60;;;10.00;;
22665;SDS011;11499;49.486;11.104;2022-12-07T17:53:59;13.30;;;10.70;;
22665;SDS011;11499;49.486;11.104;2022-12-07T17:56:24;11.63;;;9.97;;
22665;SDS011;11499;49.486;11.104;2022-12-07T17:58:50;13.00;;;11.60;;